Time;durP1;ratioP1;P1;durP2;ratioP2;P2;SDS_P1;SDS_P2;PMS_P1;PMS_P2;Temp;Humidity;BMP_temperature;BMP_pressure;BME280_temperature;BME280_humidity;BME280_pressure;Samples;Min_cycle;Max_cycle;Signal;HPM_P1;HPM_P2
2021/03/17 00:00:38;;;;;;;;;12.50;11.25;;;;;2.45;80.11;99238.31;5014281;28;8839;-60
2021/03/17 00:03:06;;;;;;;;;16.00;14.50;;;;;2.50;79.50;99239.00;5014531;28;8917;-60
2021/03/17 00:05:36;;;;;;;;;18.75;14.25;;;;;2.64;79.21;99237.59;5014342;28;8859;-60
2021/03/17 00:08:04;;;;;;;;;18.50;12.75;;;;;2.81;78.58;99228.16;5014051;28;8827;-60
2021/03/17 00:10:36;;;;;;;;;83.50;65.25;;;;;2.64;79.21;99231.44;5005932;28;8954;-61
2021/03/17 00:13:04;;;;;;;;;20.25;13.00;;;;;2.72;79.06;99232.03;5015161;28;8942;-61
2021/03/17 00:15:36;;;;;;;;;19.25;13.75;;;;;2.63;79.08;99235.00;5013058;28;8962;-60
2021/03/17 00:18:04;;;;;;;;;16.00;12.00;;;;;2.70;78.77;99225.91;5011714;28;8839;-60
2021/03/17 00:20:32;;;;;;;;;16.50;16.00;;;;;2.38;79.73;99224.44;4996933;28;8929;-60
2021/03/17 00:22:59;;;;;;;;;20.50;16.75;;;;;2.34;79.95;99223.69;5014343;28;9537;-60
2021/03/17 00:25:35;;;;;;;;;22.75;16.25;;;;;2.29;80.21;99230.03;5013804;28;8849;-60
2021/03/17 00:28:09;;;;;;;;;17.00;13.00;;;;;2.18;80.47;99227.78;5013913;28;8827;-60
2021/03/17 00:30:39;;;;;;;;;21.25;14.00;;;;;2.22;80.97;99233.84;5013810;28;8855;-60
2021/03/17 00:33:12;;;;;;;;;21.25;17.50;;;;;2.29;80.17;99225.63;5009320;28;8839;-61
2021/03/17 00:35:43;;;;;;;;;15.50;14.25;;;;;2.37;80.10;99218.28;5011113;28;8855;-60
2021/03/17 00:38:11;;;;;;;;;24.50;13.00;;;;;2.37;80.10;99218.28;5014850;28;8847;-61
2021/03/17 00:40:38;;;;;;;;;19.00;10.75;;;;;2.49;79.91;99221.41;5013455;28;8863;-61
2021/03/17 00:43:05;;;;;;;;;15.00;13.50;;;;;2.38;79.25;99220.00;5014324;28;8824;-61
2021/03/17 00:45:32;;;;;;;;;21.50;12.75;;;;;2.23;80.06;99215.25;5013305;28;8862;-60
2021/03/17 00:48:00;;;;;;;;;22.00;16.00;;;;;2.25;80.84;99218.72;5013136;28;8842;-60
2021/03/17 00:50:27;;;;;;;;;21.50;13.25;;;;;2.25;80.69;99216.06;5013265;28;8871;-60
2021/03/17 00:52:58;;;;;;;;;15.75;13.25;;;;;2.35;80.57;99211.31;5014210;28;8853;-60
2021/03/17 00:55:25;;;;;;;;;18.50;13.75;;;;;2.36;79.00;99218.31;5014035;28;9715;-60
2021/03/17 00:57:52;;;;;;;;;15.00;11.50;;;;;2.22;80.31;99217.97;5013806;28;8843;-60
2021/03/17 01:00:20;;;;;;;;;19.75;13.75;;;;;2.15;80.29;99206.69;5013183;28;8840;-61
2021/03/17 01:02:52;;;;;;;;;12.25;9.50;;;;;2.30;80.44;99211.47;5013310;28;8835;-60
2021/03/17 01:05:19;;;;;;;;;10.75;10.00;;;;;2.01;81.14;99209.84;5006329;28;8933;-61
2021/03/17 01:07:46;;;;;;;;;15.50;12.00;;;;;1.91;81.15;99209.28;5014008;28;8827;-60
2021/03/17 01:10:19;;;;;;;;;20.75;13.25;;;;;2.05;80.98;99210.59;5011958;28;8843;-61
2021/03/17 01:12:47;;;;;;;;;22.25;15.50;;;;;2.05;80.41;99202.63;5012347;28;8862;-60
2021/03/17 01:15:19;;;;;;;;;16.75;15.75;;;;;2.19;80.81;99203.03;5012514;28;8932;-60
2021/03/17 01:17:47;;;;;;;;;16.50;13.00;;;;;2.30;79.59;99203.50;5014070;28;8878;-61
2021/03/17 01:20:16;;;;;;;;;18.00;13.25;;;;;2.22;79.69;99196.78;5013290;28;8847;-60
2021/03/17 01:22:43;;;;;;;;;14.00;12.00;;;;;2.22;79.84;99200.28;4995186;28;8937;-61
2021/03/17 01:25:15;;;;;;;;;11.75;7.50;;;;;2.00;80.38;99194.84;5009265;28;8886;-61
2021/03/17 01:27:42;;;;;;;;;18.75;11.25;;;;;2.10;79.82;99203.34;5010864;28;8847;-61
2021/03/17 01:30:10;;;;;;;;;19.25;13.75;;;;;2.12;80.37;99207.66;5013308;28;8839;-61
2021/03/17 01:32:37;;;;;;;;;11.00;10.75;;;;;1.97;79.93;99209.09;5013486;28;8827;-60
2021/03/17 01:35:12;;;;;;;;;15.25;12.00;;;;;2.06;80.94;99207.03;5012180;28;8859;-60
2021/03/17 01:37:39;;;;;;;;;17.50;13.00;;;;;2.02;80.38;99206.25;5012219;28;8846;-60
2021/03/17 01:40:09;;;;;;;;;13.75;12.75;;;;;1.77;80.71;99211.53;5013156;28;8877;-61
2021/03/17 01:42:36;;;;;;;;;14.75;12.75;;;;;1.98;79.74;99205.50;5011296;28;9009;-61
2021/03/17 01:45:16;;;;;;;;;21.25;14.25;;;;;1.90;80.59;99202.25;5011727;28;8936;-61
2021/03/17 01:47:45;;;;;;;;;15.25;15.25;;;;;2.06;80.44;99207.03;5013261;28;8842;-60
2021/03/17 01:50:19;;;;;;;;;19.00;13.00;;;;;2.30;80.19;99200.88;5012659;28;8932;-61
2021/03/17 01:52:47;;;;;;;;;15.25;12.50;;;;;2.09;79.76;99196.34;5012651;28;8848;-61
2021/03/17 01:55:17;;;;;;;;;23.75;10.00;;;;;1.92;80.03;99195.16;5012665;28;8855;-61
2021/03/17 01:57:46;;;;;;;;;16.75;14.25;;;;;2.06;80.04;99196.44;5011814;28;8851;-61
2021/03/17 02:00:18;;;;;;;;;15.25;12.25;;;;;1.94;80.28;99195.94;5011511;28;8943;-61
2021/03/17 02:02:56;;;;;;;;;13.25;11.50;;;;;1.77;80.98;99186.84;5008738;28;9614;-61
2021/03/17 02:05:34;;;;;;;;;15.50;13.75;;;;;1.93;80.14;99194.22;5001952;28;8965;-60
2021/03/17 02:08:11;;;;;;;;;16.00;11.75;;;;;1.92;80.67;99188.97;5012080;28;8883;-61
2021/03/17 02:10:38;;;;;;;;;18.75;12.75;;;;;1.86;80.41;99189.19;5012867;28;8851;-61
2021/03/17 02:13:45;;;;;;;;;19.25;13.00;;;;;1.81;80.33;99186.69;5012706;28;8848;-61
2021/03/17 02:16:24;;;;;;;;;13.50;10.75;;;;;1.92;80.81;99186.31;5010393;28;8819;-61
2021/03/17 02:19:10;;;;;;;;;18.00;15.50;;;;;1.83;80.92;99190.16;5012260;28;8958;-61
2021/03/17 02:22:10;;;;;;;;;14.00;12.50;;;;;1.90;80.22;99189.03;5012142;28;8843;-60
2021/03/17 02:24:53;;;;;;;;;15.00;12.00;;;;;1.77;80.17;99190.38;5006201;28;8827;-60
2021/03/17 02:27:51;;;;;;;;;13.25;10.75;;;;;1.87;80.70;99186.50;5007945;28;8853;-60
2021/03/17 02:30:38;;;;;;;;;19.50;15.75;;;;;1.91;80.72;99190.75;5009308;28;9612;-60
2021/03/17 02:33:49;;;;;;;;;17.50;14.75;;;;;1.95;79.82;99199.47;5012583;28;8878;-60
2021/03/17 02:36:26;;;;;;;;;24.00;15.75;;;;;1.88;79.56;99190.84;5009362;28;8831;-61
2021/03/17 02:39:06;;;;;;;;;20.00;15.00;;;;;1.98;80.47;99199.34;5013187;28;9497;-61
2021/03/17 02:41:40;;;;;;;;;19.75;13.00;;;;;1.74;81.34;99198.41;5010312;28;8867;-60
2021/03/17 02:44:14;;;;;;;;;17.50;11.25;;;;;1.74;81.29;99191.34;5011603;28;8875;-60
2021/03/17 02:46:42;;;;;;;;;18.25;10.50;;;;;1.75;81.11;99194.84;5011503;28;8929;-60
2021/03/17 02:49:26;;;;;;;;;22.25;15.50;;;;;1.90;81.04;99190.81;5013772;28;8839;-60
2021/03/17 02:51:59;;;;;;;;;18.00;17.00;;;;;1.94;80.04;99188.00;5030774;28;8843;-60
2021/03/17 02:54:27;;;;;;;;;12.75;10.25;;;;;1.85;80.94;99195.41;5013321;28;9754;-59
2021/03/17 02:57:06;;;;;;;;;22.25;17.50;;;;;1.65;81.09;99188.13;5014292;28;8827;-59
2021/03/17 02:59:34;;;;;;;;;16.25;15.50;;;;;1.77;81.11;99190.38;5028906;28;8835;-60
2021/03/17 03:02:03;;;;;;;;;22.75;18.75;;;;;1.75;80.49;99193.06;5012715;28;8927;-59
2021/03/17 03:04:33;;;;;;;;;14.50;13.00;;;;;2.03;79.70;99196.53;5014023;28;8890;-59
2021/03/17 03:07:03;;;;;;;;;17.25;15.50;;;;;1.84;81.09;99201.59;5011978;28;8970;-59
2021/03/17 03:09:30;;;;;;;;;17.00;13.50;;;;;1.88;80.86;99196.16;5013958;28;8880;-60
2021/03/17 03:11:59;;;;;;;;;19.00;18.50;;;;;1.69;80.65;99197.69;5029413;28;8859;-59
2021/03/17 03:14:28;;;;;;;;;16.25;13.75;;;;;1.86;80.68;99200.63;5015158;28;8863;-60
2021/03/17 03:16:58;;;;;;;;;22.50;15.25;;;;;1.60;81.05;99192.69;5015383;28;8873;-60
2021/03/17 03:19:37;;;;;;;;;20.50;13.00;;;;;1.77;80.62;99187.72;5013198;28;8847;-60
2021/03/17 03:22:08;;;;;;;;;18.00;12.00;;;;;1.92;80.02;99189.84;5015742;28;8862;-60
2021/03/17 03:24:35;;;;;;;;;18.00;16.00;;;;;1.83;80.27;99195.44;5015880;28;8883;-60
2021/03/17 03:27:04;;;;;;;;;21.00;15.50;;;;;1.80;80.11;99192.03;5015256;28;8835;-60
2021/03/17 03:29:34;;;;;;;;;16.25;10.50;;;;;1.92;80.18;99192.50;5015088;28;8873;-60
2021/03/17 03:32:04;;;;;;;;;12.50;11.25;;;;;1.94;80.35;99192.44;5013932;28;9590;-60
2021/03/17 03:34:31;;;;;;;;;52.00;40.50;;;;;1.95;79.69;99195.03;5015769;28;8831;-60
2021/03/17 03:36:58;;;;;;;;;56.75;43.75;;;;;1.89;80.82;99197.00;4997781;28;8831;-60
2021/03/17 03:39:26;;;;;;;;;41.00;37.25;;;;;2.11;80.27;99195.38;5007254;28;8847;-60
2021/03/17 03:41:54;;;;;;;;;24.50;22.25;;;;;1.98;79.96;99199.34;5014695;28;8848;-60
2021/03/17 03:44:21;;;;;;;;;26.00;18.50;;;;;2.06;79.94;99193.81;5014607;28;8827;-60
2021/03/17 03:46:48;;;;;;;;;33.75;25.75;;;;;2.20;79.97;99199.47;5014127;28;8835;-59
2021/03/17 03:49:15;;;;;;;;;17.75;13.25;;;;;2.30;80.49;99200.88;5016041;28;8863;-60
2021/03/17 03:51:58;;;;;;;;;23.50;16.75;;;;;1.99;80.53;99195.78;5015318;28;8978;-60
2021/03/17 03:54:39;;;;;;;;;28.25;16.00;;;;;2.31;80.19;99189.34;5015775;28;8858;-60
2021/03/17 03:57:32;;;;;;;;;18.25;16.00;;;;;2.15;79.68;99186.38;5015684;28;8867;-60
2021/03/17 04:00:07;;;;;;;;;19.50;15.00;;;;;2.20;80.56;99188.88;5014143;28;8858;-60
2021/03/17 04:02:44;;;;;;;;;18.25;16.25;;;;;1.87;80.35;99194.44;5014733;28;8843;-60
2021/03/17 04:05:15;;;;;;;;;19.75;16.00;;;;;1.98;80.35;99189.63;5015326;28;8877;-60
2021/03/17 04:07:46;;;;;;;;;12.50;12.50;;;;;2.19;79.89;99195.09;4997975;28;8846;-60
2021/03/17 04:10:15;;;;;;;;;20.75;14.75;;;;;1.94;80.57;99195.94;4994615;28;8880;-60
2021/03/17 04:12:44;;;;;;;;;22.00;16.00;;;;;1.58;81.50;99199.81;4996276;28;9583;-60
2021/03/17 04:15:15;;;;;;;;;30.00;16.50;;;;;1.48;81.83;99202.78;4997923;28;8853;-60
2021/03/17 04:17:58;;;;;;;;;20.50;16.00;;;;;1.45;82.84;99194.06;5011183;28;8934;-59
2021/03/17 04:20:37;;;;;;;;;20.00;17.25;;;;;1.79;81.60;99191.19;5014955;28;8847;-59
2021/03/17 04:23:07;;;;;;;;;12.25;8.50;;;;;1.58;82.02;99189.22;5014571;28;8847;-60
2021/03/17 04:25:37;;;;;;;;;20.00;14.00;;;;;1.52;81.98;99196.44;5014387;28;8843;-60
2021/03/17 04:28:07;;;;;;;;;19.50;16.75;;;;;1.58;82.09;99199.81;5013912;28;8838;-60
2021/03/17 04:30:35;;;;;;;;;21.50;16.00;;;;;1.42;83.13;99200.34;5014005;28;8869;-59
2021/03/17 04:33:03;;;;;;;;;24.50;16.00;;;;;1.58;82.45;99197.16;5013555;28;8835;-59
2021/03/17 04:35:30;;;;;;;;;31.75;20.25;;;;;1.34;82.77;99198.84;5014188;28;8827;-60
2021/03/17 04:37:58;;;;;;;;;20.00;16.00;;;;;1.29;83.65;99198.97;5015370;28;8855;-60
2021/03/17 04:40:26;;;;;;;;;16.00;16.00;;;;;1.50;82.16;99200.06;5014530;28;9583;-60
2021/03/17 04:42:56;;;;;;;;;25.75;16.00;;;;;1.10;83.81;99203.97;5014582;28;8920;-60
2021/03/17 04:45:23;;;;;;;;;22.25;19.00;;;;;1.44;82.66;99205.56;5015156;28;8873;-60
2021/03/17 04:47:54;;;;;;;;;20.25;16.75;;;;;1.19;84.20;99205.50;5013393;28;9560;-60
2021/03/17 04:50:26;;;;;;;;;22.00;18.50;;;;;1.05;83.98;99206.78;5014730;28;8865;-59
2021/03/17 04:52:54;;;;;;;;;23.25;16.00;;;;;1.28;84.37;99199.91;5014829;28;8847;-60
2021/03/17 04:55:21;;;;;;;;;18.75;18.00;;;;;1.21;83.64;99201.00;5013545;28;8857;-60
2021/03/17 04:57:50;;;;;;;;;17.75;13.50;;;;;1.37;83.54;99207.56;5013732;28;8865;-60
2021/03/17 05:00:21;;;;;;;;;12.75;12.75;;;;;1.45;83.09;99197.59;5013868;28;8835;-60
2021/03/17 05:03:11;;;;;;;;;21.00;14.00;;;;;1.42;83.31;99200.34;5012954;28;8827;-60
2021/03/17 05:05:41;;;;;;;;;17.00;15.75;;;;;1.15;83.33;99203.84;5013136;28;8843;-60
2021/03/17 05:08:09;;;;;;;;;24.50;18.75;;;;;1.19;84.11;99205.50;5014731;28;8839;-59
2021/03/17 05:10:43;;;;;;;;;23.00;15.50;;;;;1.32;83.95;99212.13;5013639;28;8863;-59
2021/03/17 05:13:14;;;;;;;;;24.75;16.75;;;;;1.23;83.53;99205.31;5013707;28;8827;-60
2021/03/17 05:15:44;;;;;;;;;37.50;24.75;;;;;1.45;83.67;99213.47;5013685;28;8839;-59
2021/03/17 05:18:15;;;;;;;;;39.50;29.00;;;;;1.15;83.91;99223.22;5014857;28;8918;-60
2021/03/17 05:20:49;;;;;;;;;46.00;32.00;;;;;1.30;83.91;99214.81;5012871;28;8923;-61
2021/03/17 05:23:18;;;;;;;;;50.00;36.00;;;;;1.50;83.39;99216.81;4996598;28;8978;-60
2021/03/17 05:25:46;;;;;;;;;38.25;28.75;;;;;1.51;82.77;99225.63;5014298;28;8889;-60
2021/03/17 05:28:17;;;;;;;;;50.75;37.25;;;;;1.40;82.55;99223.31;5013831;28;8946;-59
2021/03/17 05:30:49;;;;;;;;;24.75;19.25;;;;;1.71;82.06;99232.88;5014141;28;8942;-59
2021/03/17 05:33:21;;;;;;;;;28.00;16.50;;;;;1.38;83.45;99235.72;5014366;28;8823;-60
2021/03/17 05:35:48;;;;;;;;;33.25;21.00;;;;;1.58;82.83;99236.84;5012883;28;8855;-60
2021/03/17 05:38:15;;;;;;;;;29.00;22.75;;;;;1.44;82.58;99238.16;5012867;28;8865;-60
2021/03/17 05:40:42;;;;;;;;;26.00;20.75;;;;;1.75;81.87;99237.19;5014186;28;8839;-60
2021/03/17 05:43:09;;;;;;;;;19.75;16.75;;;;;1.36;82.43;99237.53;5013704;28;8842;-60
2021/03/17 05:45:38;;;;;;;;;16.25;15.50;;;;;1.49;82.90;99238.88;5013961;28;8879;-60
2021/03/17 05:48:09;;;;;;;;;27.00;21.00;;;;;1.72;81.66;99246.09;5012535;28;8850;-59
2021/03/17 05:50:39;;;;;;;;;29.25;21.25;;;;;1.67;82.09;99247.16;5013682;28;8859;-60
2021/03/17 05:53:08;;;;;;;;;24.00;20.25;;;;;1.97;80.91;99246.16;5013699;28;8831;-60
2021/03/17 05:55:39;;;;;;;;;28.25;20.00;;;;;1.86;81.18;99247.41;4996218;28;8831;-60
2021/03/17 05:58:06;;;;;;;;;30.00;19.50;;;;;1.90;80.60;99257.00;5013711;28;8855;-60
2021/03/17 06:00:33;;;;;;;;;19.75;15.75;;;;;2.01;81.05;99243.41;5012372;28;8879;-60
2021/03/17 06:03:04;;;;;;;;;22.75;18.75;;;;;2.20;80.21;99244.47;5014080;28;8843;-60
2021/03/17 06:05:32;;;;;;;;;31.25;19.25;;;;;2.02;80.41;99258.34;5012358;28;8858;-60
2021/03/17 06:08:04;;;;;;;;;29.25;22.00;;;;;2.17;79.99;99257.84;5014006;28;8859;-60
2021/03/17 06:10:35;;;;;;;;;28.00;22.00;;;;;2.22;80.18;99250.59;5013273;28;8869;-60
2021/03/17 06:13:12;;;;;;;;;32.50;26.00;;;;;2.61;78.30;99256.28;5012100;28;8855;-60
2021/03/17 06:15:43;;;;;;;;;28.25;24.75;;;;;2.65;78.13;99251.72;5012216;28;8854;-60
2021/03/17 06:18:41;;;;;;;;;31.00;18.75;;;;;2.90;77.18;99254.34;4999118;28;8869;-60
2021/03/17 06:21:09;;;;;;;;;34.75;26.25;;;;;2.74;77.54;99259.34;5012237;28;8859;-59
2021/03/17 06:23:37;;;;;;;;;31.25;25.75;;;;;2.94;77.06;99260.38;5012103;28;8839;-60
2021/03/17 06:26:06;;;;;;;;;27.00;21.00;;;;;3.41;75.67;99268.31;5011717;28;8873;-60
2021/03/17 06:28:34;;;;;;;;;26.25;19.75;;;;;3.49;75.23;99263.56;5013185;28;8865;-60
2021/03/17 06:31:01;;;;;;;;;39.75;25.50;;;;;3.44;75.56;99260.22;5012450;28;8835;-60
2021/03/17 06:33:28;;;;;;;;;27.50;22.75;;;;;3.82;74.53;99264.00;4995950;28;8909;-60
2021/03/17 06:36:16;;;;;;;;;26.00;18.00;;;;;4.09;74.69;99267.31;5012644;28;8847;-60
2021/03/17 06:38:44;;;;;;;;;33.00;25.00;;;;;4.22;73.49;99265.00;4992981;28;8849;-60
2021/03/17 06:41:14;;;;;;;;;30.25;22.00;;;;;4.61;73.16;99272.19;4995527;28;8886;-60
2021/03/17 06:43:50;;;;;;;;;33.75;22.50;;;;;4.45;72.97;99272.00;5012967;28;8843;-60
2021/03/17 06:46:20;;;;;;;;;31.50;18.75;;;;;4.44;72.20;99277.38;5013115;28;8883;-60
2021/03/17 06:49:04;;;;;;;;;27.50;25.00;;;;;4.35;72.24;99275.97;4992901;28;9516;-59
2021/03/17 06:51:33;;;;;;;;;32.25;22.00;;;;;4.39;72.58;99282.88;5011798;28;8831;-60
2021/03/17 06:54:05;;;;;;;;;26.50;22.00;;;;;4.55;72.63;99286.59;5011736;28;8863;-60
2021/03/17 06:56:38;;;;;;;;;35.00;22.25;;;;;4.68;70.74;99281.59;5012292;28;8843;-60
2021/03/17 06:59:08;;;;;;;;;26.50;18.25;;;;;4.72;69.05;99290.34;5012822;28;8839;-60
2021/03/17 07:01:40;;;;;;;;;22.00;21.25;;;;;4.82;68.77;99281.03;5012357;28;8898;-60
2021/03/17 07:04:19;;;;;;;;;31.75;21.25;;;;;4.82;69.14;99289.00;5013136;28;8863;-60
2021/03/17 07:06:58;;;;;;;;;27.50;22.25;;;;;4.73;68.37;99284.06;5012790;28;8873;-60
2021/03/17 07:09:28;;;;;;;;;27.75;19.75;;;;;4.84;67.49;99281.78;5011514;28;8846;-60
2021/03/17 07:12:09;;;;;;;;;33.00;21.00;;;;;4.89;67.45;99282.44;5012821;28;8815;-61
2021/03/17 07:14:43;;;;;;;;;34.00;25.50;;;;;5.57;67.10;99279.34;5010284;28;8843;-60
2021/03/17 07:17:31;;;;;;;;;27.50;25.00;;;;;5.60;65.77;99279.19;5012192;28;8831;-60
2021/03/17 07:19:58;;;;;;;;;35.67;27.33;;;;;5.79;65.17;99274.69;5011394;28;8847;-59
2021/03/17 07:22:26;;;;;;;;;23.33;18.33;;;;;7.17;59.77;99269.44;5012294;28;8858;-60
2021/03/17 07:25:03;;;;;;;;;32.00;21.00;;;;;6.24;63.72;99265.41;5013129;28;8949;-60
2021/03/17 07:27:33;;;;;;;;;25.33;23.67;;;;;6.41;63.30;99258.34;5011989;28;8855;-60
2021/03/17 07:30:01;;;;;;;;;35.67;25.33;;;;;5.94;64.30;99263.31;4999546;28;8909;-60
2021/03/17 07:33:06;;;;;;;;;31.67;23.67;;;;;5.79;63.96;99258.72;5013126;28;8854;-61
2021/03/17 07:35:38;;;;;;;;;27.00;25.33;;;;;5.79;62.60;99264.03;5015215;28;8835;-60
2021/03/17 07:38:13;;;;;;;;;28.50;20.00;;;;;5.80;63.01;99262.25;5016007;28;8949;-60
2021/03/17 07:40:46;;;;;;;;;34.33;27.00;;;;;5.90;63.38;99261.72;5014873;28;8863;-60
2021/03/17 07:43:16;;;;;;;;;28.00;22.67;;;;;5.99;62.31;99268.44;5016460;28;8847;-60
2021/03/17 07:45:44;;;;;;;;;55.50;44.75;;;;;5.92;62.71;99261.63;5015090;28;8843;-59
2021/03/17 07:48:13;;;;;;;;;41.33;33.00;;;;;5.88;61.55;99258.28;5015953;28;8928;-59
2021/03/17 07:50:43;;;;;;;;;38.33;27.00;;;;;6.10;61.74;99266.09;5015760;28;8950;-60
2021/03/17 07:53:24;;;;;;;;;27.33;22.67;;;;;5.96;62.17;99268.59;5014269;28;8839;-59
2021/03/17 07:55:56;;;;;;;;;20.33;16.00;;;;;5.89;61.38;99265.31;5014617;28;8931;-60
2021/03/17 07:58:24;;;;;;;;;27.33;19.33;;;;;5.79;62.21;99271.16;5014888;28;9552;-60
2021/03/17 08:00:53;;;;;;;;;33.75;21.50;;;;;5.99;62.54;99271.09;5014023;28;8835;-59
2021/03/17 08:03:21;;;;;;;;;27.33;19.67;;;;;5.98;62.21;99274.72;5015211;28;8839;-60
2021/03/17 08:05:48;;;;;;;;;23.00;19.67;;;;;5.98;62.29;99269.38;5014439;28;8997;-60
2021/03/17 08:08:16;;;;;;;;;23.33;16.67;;;;;6.03;61.73;99272.69;5014619;28;8827;-60
2021/03/17 08:10:47;;;;;;;;;27.33;19.00;;;;;5.91;60.86;99279.44;5014750;28;8855;-59
2021/03/17 08:13:14;;;;;;;;;29.67;20.00;;;;;5.96;60.71;99279.25;5014972;28;8843;-59
2021/03/17 08:15:44;;;;;;;;;27.00;21.33;;;;;6.02;61.45;99281.59;5009008;28;8869;-60
2021/03/17 08:18:31;;;;;;;;;25.00;17.67;;;;;6.33;61.35;99280.94;5014394;28;8901;-60
2021/03/17 08:20:59;;;;;;;;;27.67;20.67;;;;;6.45;60.58;99287.47;5014362;28;8889;-60
2021/03/17 08:23:46;;;;;;;;;27.00;19.00;;;;;6.46;60.46;99286.50;5015601;28;8839;-60
2021/03/17 08:26:34;;;;;;;;;23.00;19.67;;;;;6.78;60.83;99281.31;5002258;28;8843;-60
2021/03/17 08:29:01;;;;;;;;;29.00;19.33;;;;;6.46;60.17;99280.31;5014566;28;8830;-58
2021/03/17 08:31:37;;;;;;;;;29.67;22.33;;;;;6.67;60.36;99273.88;5015393;28;9825;-60
2021/03/17 08:34:20;;;;;;;;;29.33;21.00;;;;;6.70;58.48;99281.69;5015455;28;8847;-60
2021/03/17 08:37:00;;;;;;;;;24.33;20.00;;;;;6.88;59.36;99276.34;5015087;28;8938;-60
2021/03/17 08:39:29;;;;;;;;;28.00;20.33;;;;;6.96;58.13;99275.00;5013000;28;8827;-60
2021/03/17 08:42:14;;;;;;;;;35.00;17.67;;;;;7.19;58.82;99284.44;5014647;28;8855;-60
2021/03/17 08:44:40;;;;;;;;;27.33;20.33;;;;;7.03;58.31;99276.41;5014624;28;8862;-59
2021/03/17 08:47:33;;;;;;;;;17.33;14.00;;;;;7.02;57.72;99276.47;5014487;28;8970;-60
2021/03/17 08:50:15;;;;;;;;;37.67;25.33;;;;;7.14;57.93;99282.97;5014635;28;8823;-60
2021/03/17 08:52:56;;;;;;;;;32.33;22.67;;;;;7.48;56.69;99279.31;5015141;28;8847;-58
2021/03/17 08:55:37;;;;;;;;;18.67;15.00;;;;;7.50;56.78;99277.41;5014357;28;8913;-59
2021/03/17 08:58:09;;;;;;;;;19.00;19.00;;;;;7.42;56.84;99284.97;5014410;28;8819;-59
2021/03/17 09:00:45;;;;;;;;;21.67;14.00;;;;;7.60;56.96;99281.28;5013036;28;8882;-59
2021/03/17 09:03:38;;;;;;;;;21.33;19.00;;;;;7.70;56.75;99276.28;5013373;28;8859;-59
2021/03/17 09:06:28;;;;;;;;;23.67;19.00;;;;;7.65;56.51;99279.22;5013110;28;8968;-58
2021/03/17 09:09:16;;;;;;;;;42.33;27.33;;;;;7.43;55.86;99282.22;5012669;28;8815;-58
2021/03/17 09:11:43;;;;;;;;;19.67;15.00;;;;;7.73;56.33;99277.94;5010516;28;8866;-59
2021/03/17 09:14:22;;;;;;;;;24.67;19.00;;;;;7.69;56.62;99280.78;5013121;28;8869;-59
2021/03/17 09:17:13;;;;;;;;;25.67;17.00;;;;;7.73;55.56;99278.78;5013099;28;8831;-58
2021/03/17 09:20:04;;;;;;;;;23.00;18.00;;;;;7.92;55.32;99286.63;5012307;28;8827;-59
2021/03/17 09:22:43;;;;;;;;;26.33;19.67;;;;;7.88;55.79;99279.75;5012757;28;8812;-58
2021/03/17 09:25:21;;;;;;;;;24.33;18.67;;;;;7.84;55.35;99270.16;5013235;28;9745;-59
2021/03/17 09:28:02;;;;;;;;;21.67;21.00;;;;;8.14;54.66;99271.06;5029400;28;9267;-59
2021/03/17 09:30:36;;;;;;;;;26.67;19.00;;;;;8.18;54.37;99273.56;5014276;28;8870;-58
2021/03/17 09:33:19;;;;;;;;;14.33;14.33;;;;;8.67;54.59;99257.31;5028593;28;8847;-59
2021/03/17 09:35:52;;;;;;;;;19.00;15.67;;;;;8.67;53.61;99257.31;4994209;28;8849;-58
2021/03/17 09:38:20;;;;;;;;;24.67;17.00;;;;;9.14;51.76;99272.28;5008083;28;8865;-59
2021/03/17 09:41:15;;;;;;;;;16.00;13.67;;;;;8.96;52.83;99259.06;5013252;28;8832;-58
2021/03/17 09:44:01;;;;;;;;;29.00;18.33;;;;;9.32;53.05;99264.88;5013585;28;8865;-60
2021/03/17 09:46:36;;;;;;;;;24.67;22.67;;;;;9.23;52.35;99271.69;5012667;28;8843;-58
2021/03/17 09:49:13;;;;;;;;;30.67;20.33;;;;;8.88;53.12;99276.56;5012807;28;8835;-58
2021/03/17 09:51:51;;;;;;;;;21.00;19.67;;;;;8.87;52.36;99269.47;5012830;28;8863;-59
2021/03/17 09:54:27;;;;;;;;;19.00;17.67;;;;;9.01;53.05;99262.31;5013694;28;8954;-59
2021/03/17 09:56:57;;;;;;;;;25.00;22.67;;;;;9.38;52.16;99272.53;5011582;28;8839;-59
2021/03/17 09:59:36;;;;;;;;;28.00;21.67;;;;;9.98;54.53;99269.53;5012680;28;8839;-59
2021/03/17 10:02:17;;;;;;;;;18.00;17.00;;;;;9.99;50.01;99259.66;4999920;28;8862;-61
2021/03/17 10:05:06;;;;;;;;;27.67;16.33;;;;;9.79;52.65;99259.13;5013130;28;8823;-58
2021/03/17 10:07:33;;;;;;;;;26.00;21.00;;;;;9.55;50.93;99260.72;5013409;28;8977;-59
2021/03/17 10:10:02;;;;;;;;;27.67;21.67;;;;;10.19;49.45;99264.56;5012383;28;8835;-58
2021/03/17 10:12:31;;;;;;;;;25.67;20.33;;;;;9.88;50.25;99268.41;5013189;28;8971;-58
2021/03/17 10:15:10;;;;;;;;;21.00;17.00;;;;;10.36;49.72;99270.66;5010517;28;8834;-58
2021/03/17 10:17:38;;;;;;;;;24.00;15.33;;;;;10.00;48.36;99272.09;5013375;28;8855;-58
2021/03/17 10:20:22;;;;;;;;;22.67;20.33;;;;;9.60;48.47;99258.63;5012594;28;8843;-59
2021/03/17 10:22:55;;;;;;;;;19.33;15.67;;;;;10.40;47.27;99265.00;5012475;28;8970;-59
2021/03/17 10:25:26;;;;;;;;;21.00;21.00;;;;;10.41;46.18;99260.47;5012812;28;8850;-59
2021/03/17 10:28:06;;;;;;;;;23.00;21.00;;;;;9.95;46.50;99253.63;5013067;28;9591;-59
2021/03/17 10:30:38;;;;;;;;;18.00;17.00;;;;;10.03;47.08;99261.16;5013445;28;8835;-58
2021/03/17 10:33:14;;;;;;;;;18.33;17.67;;;;;9.94;46.46;99254.59;5008620;28;11572;-59
2021/03/17 10:35:44;;;;;;;;;22.67;15.33;;;;;9.96;46.43;99249.16;4993292;28;8837;-58
2021/03/17 10:38:11;;;;;;;;;20.67;19.33;;;;;9.94;46.69;99251.06;4993239;28;8881;-58
2021/03/17 10:40:40;;;;;;;;;20.67;13.33;;;;;10.13;44.18;99246.19;5005952;28;8859;-58
2021/03/17 10:43:15;;;;;;;;;25.33;16.00;;;;;10.15;44.92;99244.28;5013412;28;8843;-59
2021/03/17 10:45:51;;;;;;;;;17.33;16.00;;;;;10.03;44.62;99245.97;5011429;28;8862;-60
2021/03/17 10:48:22;;;;;;;;;22.33;15.33;;;;;9.94;45.67;99234.97;5011215;28;8870;-59
2021/03/17 10:50:51;;;;;;;;;22.67;14.33;;;;;9.96;45.72;99235.75;5013016;28;8885;-58
2021/03/17 10:53:29;;;;;;;;;21.33;15.00;;;;;9.86;44.70;99235.47;5012040;28;8912;-60
2021/03/17 10:56:00;;;;;;;;;17.67;14.33;;;;;10.44;43.18;99231.59;4993840;28;8990;-59
2021/03/17 10:58:38;;;;;;;;;19.67;17.67;;;;;10.37;43.57;99232.13;4993072;28;11542;-59
2021/03/17 11:01:05;;;;;;;;;19.00;17.00;;;;;10.55;43.38;99225.50;5001828;28;11565;-59
2021/03/17 11:03:39;;;;;;;;;24.00;19.67;;;;;11.47;42.82;99221.66;5005001;28;11587;-59
2021/03/17 11:06:25;;;;;;;;;20.33;19.00;;;;;10.87;42.08;99230.44;4993521;28;11583;-59
2021/03/17 11:09:04;;;;;;;;;23.00;18.00;;;;;10.41;43.84;99226.44;4993192;28;11562;-60
2021/03/17 11:11:35;;;;;;;;;20.00;17.00;;;;;10.27;44.14;99216.66;4996812;28;11551;-60
2021/03/17 11:14:01;;;;;;;;;14.67;11.00;;;;;10.28;43.09;99218.38;5011061;28;12349;-59
2021/03/17 11:16:36;;;;;;;;;21.33;16.33;;;;;10.19;43.30;99218.09;5016607;28;8905;-58
2021/03/17 11:19:14;;;;;;;;;17.00;13.00;;;;;10.45;44.83;99219.03;5008584;28;12263;-60
2021/03/17 11:21:41;;;;;;;;;25.33;20.33;;;;;10.29;44.74;99217.41;5016598;28;8941;-60
2021/03/17 11:24:19;;;;;;;;;15.00;13.33;;;;;10.23;44.32;99209.72;5016397;28;8960;-60
2021/03/17 11:26:46;;;;;;;;;17.67;15.67;;;;;10.08;44.22;99218.81;5013918;28;11573;-59
2021/03/17 11:29:17;;;;;;;;;17.33;15.33;;;;;9.34;45.05;99215.59;5015545;28;8831;-61
2021/03/17 11:31:51;;;;;;;;;20.67;20.67;;;;;9.21;44.59;99222.69;5016265;28;9584;-59
2021/03/17 11:34:20;;;;;;;;;20.00;18.67;;;;;9.30;46.33;99224.81;5015419;28;8831;-60
2021/03/17 11:36:50;;;;;;;;;41.00;26.00;;;;;9.14;46.50;99232.09;5013589;28;8831;-60
2021/03/17 11:39:19;;;;;;;;;27.67;20.67;;;;;9.19;47.79;99238.88;5015940;28;8847;-60
2021/03/17 11:41:49;;;;;;;;;25.00;19.00;;;;;9.17;46.49;99232.75;5015122;28;8866;-60
2021/03/17 11:44:20;;;;;;;;;29.00;21.00;;;;;9.26;46.50;99239.34;5015890;28;8889;-59
2021/03/17 11:46:48;;;;;;;;;19.67;16.00;;;;;8.80;49.01;99236.88;5015778;28;9532;-60
2021/03/17 11:49:17;;;;;;;;;20.33;14.00;;;;;8.64;49.54;99241.44;5015590;28;8839;-61
2021/03/17 11:51:45;;;;;;;;;20.00;18.67;;;;;8.30;51.33;99246.09;5014950;28;8869;-59
2021/03/17 11:54:13;;;;;;;;;21.33;17.33;;;;;8.51;51.77;99257.38;5015855;28;8835;-60
2021/03/17 11:56:42;;;;;;;;;22.00;14.00;;;;;8.24;53.67;99254.47;5015853;28;8932;-61
2021/03/17 11:59:09;;;;;;;;;14.00;13.33;;;;;7.55;60.18;99283.34;5015719;28;8961;-59